createdAt,value
2023-03-28T00:04:41.998Z,9.50
2023-03-28T00:09:45.181Z,8.50
2023-03-28T00:14:49.912Z,9.40
2023-03-28T00:19:53.536Z,10.90
2023-03-28T00:24:57.198Z,10.10
2023-03-28T00:30:00.924Z,10.60
2023-03-28T00:35:09.715Z,9.90
2023-03-28T00:40:15.886Z,10.00
2023-03-28T00:45:21.551Z,8.90
2023-03-28T00:50:31.592Z,9.40
2023-03-28T00:55:46.205Z,9.80
2023-03-28T01:01:06.157Z,9.80
2023-03-28T01:06:16.394Z,9.10
2023-03-28T01:11:21.205Z,8.10
2023-03-28T01:16:24.298Z,8.70
2023-03-28T01:21:50.832Z,8.20
2023-03-28T01:27:15.646Z,8.80
2023-03-28T01:32:55.504Z,8.40
2023-03-28T01:38:52.532Z,8.00
2023-03-28T01:44:19.003Z,8.70
2023-03-28T01:49:49.798Z,8.40
2023-03-28T01:55:09.438Z,7.90
2023-03-28T02:00:36.853Z,8.90
2023-03-28T02:05:45.499Z,7.30
2023-03-28T02:10:56.488Z,7.90
2023-03-28T02:16:23.590Z,7.50
2023-03-28T02:22:16.602Z,8.70
2023-03-28T02:27:35.032Z,8.30
2023-03-28T02:33:06.256Z,8.90
2023-03-28T02:38:31.080Z,8.70
2023-03-28T02:43:48.040Z,9.20
2023-03-28T02:49:14.481Z,8.70
2023-03-28T02:54:35.927Z,7.30
2023-03-28T03:00:16.685Z,9.20
2023-03-28T03:05:20.852Z,8.70
2023-03-28T03:10:23.347Z,9.70
2023-03-28T03:15:32.863Z,6.60
2023-03-28T03:20:51.829Z,6.60
2023-03-28T03:25:56.509Z,6.90
2023-03-28T03:36:13.642Z,7.10
2023-03-28T03:41:16.421Z,7.20
2023-03-28T03:46:19.540Z,7.10
2023-03-28T03:51:22.948Z,6.70
2023-03-28T03:56:32.553Z,7.00
2023-03-28T04:01:36.379Z,6.50
2023-03-28T04:07:06.215Z,7.30
2023-03-28T04:12:11.790Z,6.30
2023-03-28T04:17:30.306Z,5.00
2023-03-28T04:22:45.497Z,4.60
2023-03-28T04:28:00.035Z,5.50
2023-03-28T04:33:06.007Z,4.70
2023-03-28T04:43:32.617Z,3.90
2023-03-28T04:48:44.915Z,4.60
2023-03-28T04:54:28.521Z,4.90
2023-03-28T05:00:27.990Z,5.20
2023-03-28T05:06:02.367Z,5.00
2023-03-28T05:11:11.202Z,5.40
2023-03-28T05:16:16.698Z,4.90
2023-03-28T05:21:19.065Z,4.80
2023-03-28T05:26:30.989Z,4.90
2023-03-28T05:31:44.717Z,4.60
2023-03-28T05:36:58.692Z,4.50
2023-03-28T05:42:23.920Z,5.20
2023-03-28T05:47:27.155Z,5.20
2023-03-28T05:52:32.542Z,4.30
2023-03-28T05:57:57.597Z,4.40
2023-03-28T06:03:40.403Z,3.60
2023-03-28T06:09:19.523Z,4.60
2023-03-28T06:14:46.740Z,4.30
2023-03-28T06:20:11.273Z,4.40
2023-03-28T06:25:28.485Z,4.70
2023-03-28T06:30:31.352Z,2.80
2023-03-28T06:35:55.330Z,1.50
2023-03-28T06:41:25.779Z,1.40
2023-03-28T06:46:32.298Z,1.10
2023-03-28T06:51:43.636Z,1.40
2023-03-28T06:57:10.406Z,1.40
2023-03-28T07:02:19.849Z,2.20
2023-03-28T07:07:23.693Z,1.80
2023-03-28T07:12:35.419Z,2.30
2023-03-28T07:17:38.623Z,2.00
2023-03-28T07:23:06.727Z,2.30
2023-03-28T07:28:24.320Z,2.40
2023-03-28T07:33:40.712Z,2.00
2023-03-28T07:38:48.967Z,2.40
2023-03-28T07:44:08.607Z,2.10
2023-03-28T07:49:20.694Z,1.80
2023-03-28T07:54:48.943Z,1.70
2023-03-28T07:59:57.694Z,1.30
2023-03-28T08:05:16.884Z,1.50
2023-03-28T08:10:24.427Z,1.70
2023-03-28T08:15:36.947Z,2.30
2023-03-28T08:20:58.453Z,2.30
2023-03-28T08:26:07.736Z,2.20
2023-03-28T08:31:23.533Z,2.00
2023-03-28T08:36:37.772Z,1.50
2023-03-28T08:42:41.458Z,1.20
2023-03-28T08:48:11.677Z,1.60
2023-03-28T08:53:37.533Z,1.90
2023-03-28T08:59:25.652Z,2.50
2023-03-28T09:04:52.771Z,3.20
2023-03-28T09:11:19.091Z,2.30
2023-03-28T09:17:27.193Z,1.60
2023-03-28T09:23:31.935Z,1.40
2023-03-28T09:29:23.529Z,1.70
2023-03-28T09:34:30.633Z,1.90
2023-03-28T09:39:59.554Z,1.60
2023-03-28T09:45:37.263Z,1.50
2023-03-28T09:51:48.827Z,1.90
2023-03-28T09:57:16.157Z,2.10
2023-03-28T10:02:36.092Z,1.90
2023-03-28T10:08:22.795Z,2.10
2023-03-28T10:14:17.161Z,2.80
2023-03-28T10:19:40.113Z,1.60
2023-03-28T10:25:04.243Z,1.10
2023-03-28T10:30:42.160Z,1.00
2023-03-28T10:36:03.042Z,1.30
2023-03-28T10:41:55.119Z,1.20
2023-03-28T10:47:57.891Z,1.30
2023-03-28T10:54:12.597Z,1.20
2023-03-28T10:59:54.858Z,1.50
2023-03-28T11:05:38.384Z,0.70
2023-03-28T11:11:33.491Z,1.10
2023-03-28T11:17:47.549Z,1.20
2023-03-28T11:24:19.180Z,0.90
2023-03-28T11:30:42.397Z,1.70
2023-03-28T11:36:01.541Z,1.90
2023-03-28T11:41:26.214Z,1.80
2023-03-28T11:47:23.638Z,1.70
2023-03-28T11:53:26.957Z,1.00
2023-03-28T11:59:02.627Z,1.70
2023-03-28T12:04:28.298Z,1.60
2023-03-28T12:10:06.728Z,2.00
2023-03-28T12:16:09.901Z,1.70
2023-03-28T12:22:35.403Z,1.60
2023-03-28T12:28:22.442Z,1.10
2023-03-28T12:34:32.503Z,1.10
2023-03-28T12:40:14.673Z,1.40
2023-03-28T12:45:36.298Z,1.20
2023-03-28T12:51:25.725Z,1.10
2023-03-28T12:58:00.842Z,1.30
2023-03-28T13:04:24.601Z,1.10
2023-03-28T13:10:10.627Z,1.40
2023-03-28T13:15:53.210Z,1.30
2023-03-28T13:21:30.303Z,1.20
2023-03-28T13:27:17.121Z,1.20
2023-03-28T13:32:34.691Z,1.20
2023-03-28T13:37:51.099Z,1.30
2023-03-28T13:43:07.300Z,1.60
2023-03-28T13:49:26.050Z,2.40
2023-03-28T13:54:46.443Z,2.10
2023-03-28T14:00:08.804Z,1.70
2023-03-28T14:05:28.748Z,1.50
2023-03-28T14:10:36.035Z,1.60
2023-03-28T14:15:40.724Z,1.60
2023-03-28T14:20:54.467Z,1.60
2023-03-28T14:26:07.334Z,1.10
2023-03-28T14:31:27.279Z,0.60
2023-03-28T14:36:33.758Z,0.80
2023-03-28T14:41:37.523Z,0.90
2023-03-28T14:46:40.468Z,1.40
2023-03-28T14:51:45.162Z,1.10
2023-03-28T14:56:48.032Z,1.40
2023-03-28T15:01:51.878Z,1.90
2023-03-28T15:07:01.486Z,1.50
2023-03-28T15:12:12.170Z,1.80
2023-03-28T15:17:22.504Z,1.80
2023-03-28T15:22:34.923Z,1.60
2023-03-28T15:27:53.137Z,1.80
2023-03-28T15:33:02.230Z,2.40
2023-03-28T15:38:41.606Z,2.20
2023-03-28T15:44:31.317Z,2.10
2023-03-28T15:49:38.485Z,1.70
2023-03-28T15:54:44.721Z,1.80
2023-03-28T15:59:56.209Z,1.70
2023-03-28T16:05:09.921Z,2.70
2023-03-28T16:10:19.671Z,1.90
2023-03-28T16:15:53.992Z,2.30
2023-03-28T16:21:15.070Z,1.70
2023-03-28T16:26:17.416Z,1.70
2023-03-28T16:31:25.158Z,2.60
2023-03-28T16:36:27.859Z,2.20
2023-03-28T16:41:30.309Z,2.80
2023-03-28T16:46:33.295Z,2.80
2023-03-28T16:51:41.087Z,2.70
2023-03-28T16:56:54.652Z,3.10
2023-03-28T17:01:58.163Z,3.50
2023-03-28T17:07:00.290Z,3.50
2023-03-28T17:12:04.370Z,3.30
2023-03-28T17:17:06.887Z,3.70
2023-03-28T17:22:18.788Z,3.60
2023-03-28T17:27:22.648Z,3.90
2023-03-28T17:32:25.977Z,3.70
2023-03-28T17:37:31.608Z,4.10
2023-03-28T17:42:34.386Z,4.10
2023-03-28T17:47:39.457Z,3.50
2023-03-28T17:52:41.582Z,2.80
2023-03-28T17:57:43.798Z,2.30
2023-03-28T18:02:46.688Z,1.90
2023-03-28T18:08:04.647Z,2.10
2023-03-28T18:13:09.575Z,1.40
2023-03-28T18:18:14.720Z,1.90
2023-03-28T18:23:24.333Z,1.80
2023-03-28T18:33:37.569Z,1.90
2023-03-28T18:38:42.733Z,2.60
2023-03-28T18:43:45.749Z,2.20
2023-03-28T18:48:50.820Z,2.30
2023-03-28T18:53:54.068Z,2.70
2023-03-28T18:58:59.058Z,2.40
2023-03-28T19:04:01.447Z,2.60
2023-03-28T19:09:14.252Z,2.90
2023-03-28T19:14:19.333Z,4.00
2023-03-28T19:19:23.614Z,4.30
2023-03-28T19:24:25.815Z,4.30
2023-03-28T19:29:28.535Z,3.80
2023-03-28T19:34:30.660Z,3.80
2023-03-28T19:39:38.184Z,3.50
2023-03-28T19:44:46.977Z,4.10
2023-03-28T19:49:53.126Z,4.20
2023-03-28T19:55:04.543Z,6.70
2023-03-28T20:00:23.133Z,8.20
2023-03-28T20:05:27.870Z,8.90
2023-03-28T20:10:32.641Z,9.00
2023-03-28T20:15:41.191Z,11.20
2023-03-28T20:20:43.699Z,11.50
2023-03-28T20:25:47.729Z,10.50
2023-03-28T20:30:51.612Z,8.10
2023-03-28T20:35:58.810Z,7.90
2023-03-28T20:41:01.857Z,7.30
2023-03-28T20:46:04.969Z,8.20
2023-03-28T20:51:18.779Z,6.00
2023-03-28T20:56:21.948Z,5.10
2023-03-28T21:01:27.972Z,5.40
2023-03-28T21:06:36.531Z,5.60
2023-03-28T21:12:04.235Z,5.00
2023-03-28T21:17:08.752Z,6.30
2023-03-28T21:22:11.727Z,5.50
2023-03-28T21:27:15.852Z,7.70
2023-03-28T21:32:18.084Z,9.50
2023-03-28T21:37:20.957Z,10.70
2023-03-28T21:42:24.921Z,8.40
2023-03-28T21:47:27.970Z,8.00
2023-03-28T21:52:33.257Z,7.80
2023-03-28T21:57:36.723Z,8.50
2023-03-28T22:02:39.119Z,8.30
2023-03-28T22:07:44.659Z,9.50
2023-03-28T22:12:49.085Z,8.90
2023-03-28T22:17:51.121Z,10.30
2023-03-28T22:22:53.907Z,9.90
2023-03-28T22:27:58.143Z,9.10
2023-03-28T22:33:00.877Z,10.20
2023-03-28T22:38:04.193Z,9.80
2023-03-28T22:43:07.117Z,9.20
2023-03-28T22:48:14.548Z,11.00
2023-03-28T22:53:22.780Z,10.20
2023-03-28T22:58:26.249Z,9.30
2023-03-28T23:03:32.493Z,10.80
2023-03-28T23:08:37.812Z,11.20
2023-03-28T23:13:44.161Z,10.10
2023-03-28T23:18:49.979Z,11.70
2023-03-28T23:23:54.990Z,14.10
2023-03-28T23:29:02.201Z,14.80
2023-03-28T23:34:04.598Z,13.70
2023-03-28T23:39:07.341Z,13.70
2023-03-28T23:44:09.969Z,10.70
2023-03-28T23:55:02.368Z,11.40
